Time;durP1;ratioP1;P1;durP2;ratioP2;P2;SDS_P1;SDS_P2;PMS_P1;PMS_P2;Temp;Humidity;BMP_temperature;BMP_pressure;BME280_temperature;BME280_humidity;BME280_pressure;Samples;Min_cycle;Max_cycle;Signal;HPM_P1;HPM_P2
2022/05/29 00:00:31;;;;;;;12.05;3.78;;;;;;;;;;4955528;29;20098;-88
2022/05/29 00:02:57;;;;;;;11.13;3.35;;;;;;;;;;4955231;29;20046;-88
2022/05/29 00:05:22;;;;;;;10.55;2.90;;;;;;;;;;4938226;29;20051;-87
2022/05/29 00:07:49;;;;;;;13.73;3.17;;;;;;;;;;4938220;29;20039;-88
2022/05/29 00:10:16;;;;;;;19.25;3.65;;;;;;;;;;4938191;29;20545;-87
2022/05/29 00:12:43;;;;;;;16.00;3.10;;;;;;;;;;4955284;29;20086;-88
2022/05/29 00:15:09;;;;;;;16.38;3.25;;;;;;;;;;4938625;29;20054;-88
2022/05/29 00:17:35;;;;;;;11.88;2.78;;;;;;;;;;4955164;29;20130;-88
2022/05/29 00:20:01;;;;;;;12.55;2.78;;;;;;;;;;4937807;29;20102;-89
2022/05/29 00:22:28;;;;;;;10.75;3.67;;;;;;;;;;4937954;29;20040;-87
2022/05/29 00:24:54;;;;;;;15.20;3.03;;;;;;;;;;4937895;28;20047;-87
2022/05/29 00:27:20;;;;;;;11.23;2.97;;;;;;;;;;4938222;29;20122;-88
2022/05/29 00:29:46;;;;;;;12.07;3.35;;;;;;;;;;4938437;29;20047;-90
2022/05/29 00:32:12;;;;;;;11.43;2.70;;;;;;;;;;4922481;29;20390;-88
2022/05/29 00:34:38;;;;;;;15.35;3.42;;;;;;;;;;4938467;28;20110;-90
2022/05/29 00:37:06;;;;;;;13.27;2.58;;;;;;;;;;4938028;29;20497;-87
2022/05/29 00:39:31;;;;;;;16.10;2.67;;;;;;;;;;4955282;28;20047;-90
2022/05/29 00:41:58;;;;;;;10.32;2.13;;;;;;;;;;4937836;29;20133;-88
2022/05/29 00:44:28;;;;;;;12.43;2.63;;;;;;;;;;4922188;29;20058;-88
2022/05/29 00:46:57;;;;;;;13.32;2.92;;;;;;;;;;4937672;29;20059;-88
2022/05/29 00:49:29;;;;;;;12.82;2.22;;;;;;;;;;4955405;28;20043;-86
2022/05/29 00:51:59;;;;;;;15.05;2.70;;;;;;;;;;4954769;28;20039;-87
2022/05/29 00:54:25;;;;;;;12.82;3.25;;;;;;;;;;4937605;29;20054;-86
2022/05/29 00:56:52;;;;;;;12.80;2.92;;;;;;;;;;4922304;29;20091;-90
2022/05/29 00:59:20;;;;;;;14.57;2.85;;;;;;;;;;4938557;29;20402;-91
2022/05/29 01:01:46;;;;;;;12.40;2.97;;;;;;;;;;4955788;29;20047;-90
2022/05/29 01:04:12;;;;;;;12.48;2.83;;;;;;;;;;4938105;29;20051;-91
2022/05/29 01:06:38;;;;;;;12.90;2.95;;;;;;;;;;4937952;29;20074;-89
2022/05/29 01:09:05;;;;;;;10.43;2.58;;;;;;;;;;4938023;29;20506;-89
2022/05/29 01:11:40;;;;;;;12.52;3.38;;;;;;;;;;4937773;29;20054;-89
2022/05/29 01:14:06;;;;;;;16.48;3.20;;;;;;;;;;4955162;29;20053;-88
2022/05/29 01:16:50;;;;;;;13.32;2.97;;;;;;;;;;4955178;28;20047;-89
2022/05/29 01:19:28;;;;;;;11.93;2.75;;;;;;;;;;4937984;29;20054;-92
2022/05/29 01:21:57;;;;;;;11.15;2.95;;;;;;;;;;4955403;29;20043;-91
2022/05/29 01:24:42;;;;;;;14.07;3.30;;;;;;;;;;4937980;29;20054;-88
2022/05/29 01:27:10;;;;;;;18.65;3.95;;;;;;;;;;4954948;29;20506;-89
2022/05/29 01:29:42;;;;;;;13.75;3.17;;;;;;;;;;4954862;28;20043;-88
2022/05/29 01:32:11;;;;;;;11.95;3.00;;;;;;;;;;4940592;29;20043;-89
2022/05/29 01:34:38;;;;;;;12.52;2.85;;;;;;;;;;4941571;28;20070;-89
2022/05/29 01:37:08;;;;;;;12.93;2.90;;;;;;;;;;4958984;28;20051;-88
2022/05/29 01:39:42;;;;;;;14.43;2.80;;;;;;;;;;4940974;29;20074;-90
2022/05/29 01:42:13;;;;;;;11.60;3.30;;;;;;;;;;4958365;29;20035;-88
2022/05/29 01:44:41;;;;;;;12.48;2.72;;;;;;;;;;4941016;28;20127;-89
2022/05/29 01:47:19;;;;;;;17.15;3.42;;;;;;;;;;4937763;29;20078;-87
2022/05/29 01:49:50;;;;;;;14.85;2.60;;;;;;;;;;4937905;29;20051;-89
2022/05/29 01:52:25;;;;;;;10.63;2.70;;;;;;;;;;4937794;29;20039;-87
2022/05/29 01:54:53;;;;;;;12.50;3.33;;;;;;;;;;4937606;29;20063;-88
2022/05/29 01:57:22;;;;;;;13.90;2.90;;;;;;;;;;4939097;29;20275;-88
2022/05/29 01:59:51;;;;;;;11.38;2.40;;;;;;;;;;4937748;29;20083;-88
2022/05/29 02:02:19;;;;;;;14.95;3.05;;;;;;;;;;4937897;29;20036;-89
2022/05/29 02:04:47;;;;;;;11.73;3.17;;;;;;;;;;4937435;29;20127;-89
2022/05/29 02:10:07;;;;;;;16.90;3.17;;;;;;;;;;4938811;29;20043;-90
2022/05/29 02:12:34;;;;;;;11.15;3.55;;;;;;;;;;4938029;29;20091;-89
2022/05/29 02:15:02;;;;;;;12.73;3.33;;;;;;;;;;4937305;29;20054;-89
2022/05/29 02:17:33;;;;;;;9.30;2.70;;;;;;;;;;4937828;29;20052;-91
2022/05/29 02:20:03;;;;;;;15.65;2.55;;;;;;;;;;4937823;29;20047;-92
2022/05/29 02:22:30;;;;;;;16.48;3.47;;;;;;;;;;4938925;29;20035;-89
2022/05/29 02:25:07;;;;;;;11.45;2.70;;;;;;;;;;4937185;29;20050;-90
2022/05/29 02:27:52;;;;;;;16.17;2.92;;;;;;;;;;4937782;29;20054;-89
2022/05/29 02:30:18;;;;;;;10.80;3.08;;;;;;;;;;4937198;29;20094;-89
2022/05/29 02:32:50;;;;;;;10.90;2.55;;;;;;;;;;4937572;29;20047;-89
2022/05/29 02:35:26;;;;;;;13.13;2.90;;;;;;;;;;4937146;29;20075;-90
2022/05/29 02:37:52;;;;;;;;;;;;;;;;;;4937699;29;20044;-89
2022/05/29 02:40:30;;;;;;;13.27;2.45;;;;;;;;;;4937240;29;20333;-89
2022/05/29 02:43:02;;;;;;;9.85;2.58;;;;;;;;;;4936847;29;20110;-90
2022/05/29 02:45:54;;;;;;;15.48;2.80;;;;;;;;;;4943534;29;20047;-90
2022/05/29 02:48:23;;;;;;;11.75;2.65;;;;;;;;;;4957229;29;20379;-88
2022/05/29 02:50:52;;;;;;;11.75;2.75;;;;;;;;;;4940420;29;20126;-89
2022/05/29 02:53:18;;;;;;;12.18;3.60;;;;;;;;;;4940389;29;20414;-89
2022/05/29 02:55:45;;;;;;;15.27;3.20;;;;;;;;;;4940335;29;20089;-89
2022/05/29 02:58:18;;;;;;;14.10;3.40;;;;;;;;;;4940353;29;20424;-90
2022/05/29 03:00:54;;;;;;;12.10;2.95;;;;;;;;;;4923990;29;20050;-87
2022/05/29 03:03:29;;;;;;;18.25;3.42;;;;;;;;;;4939090;29;20058;-88
2022/05/29 03:06:08;;;;;;;15.85;3.35;;;;;;;;;;4939546;29;20050;-89
2022/05/29 03:08:56;;;;;;;12.20;2.85;;;;;;;;;;4955232;29;20039;-90
2022/05/29 03:11:24;;;;;;;13.15;2.92;;;;;;;;;;4939707;29;20390;-89
2022/05/29 03:14:02;;;;;;;12.32;3.10;;;;;;;;;;4939370;29;20047;-89
2022/05/29 03:16:46;;;;;;;11.30;2.70;;;;;;;;;;4939410;29;20458;-88
2022/05/29 03:19:27;;;;;;;13.85;3.03;;;;;;;;;;4956179;28;20435;-87
2022/05/29 03:21:56;;;;;;;13.18;3.20;;;;;;;;;;4939422;29;20107;-88
2022/05/29 03:24:46;;;;;;;11.07;2.88;;;;;;;;;;4938606;29;20058;-86
2022/05/29 03:27:15;;;;;;;12.52;3.00;;;;;;;;;;4934130;29;20059;-88
2022/05/29 03:29:50;;;;;;;11.13;3.20;;;;;;;;;;4938981;29;20479;-86
2022/05/29 03:32:16;;;;;;;13.45;3.03;;;;;;;;;;4939064;29;20522;-87
2022/05/29 03:34:42;;;;;;;10.68;2.78;;;;;;;;;;4938726;28;20047;-87
2022/05/29 03:37:08;;;;;;;11.38;3.45;;;;;;;;;;4939077;29;20051;-89
2022/05/29 03:39:35;;;;;;;11.15;2.88;;;;;;;;;;4938871;29;20047;-91
2022/05/29 03:42:01;;;;;;;11.75;2.72;;;;;;;;;;4939234;29;20043;-89
2022/05/29 03:44:27;;;;;;;11.52;2.95;;;;;;;;;;4939045;29;20569;-88
2022/05/29 03:46:53;;;;;;;11.93;2.85;;;;;;;;;;4938998;29;20416;-89
2022/05/29 03:49:21;;;;;;;13.43;2.65;;;;;;;;;;4938822;29;20102;-90
2022/05/29 03:51:47;;;;;;;12.90;2.85;;;;;;;;;;4939342;29;20058;-90
2022/05/29 03:54:13;;;;;;;13.52;2.75;;;;;;;;;;4938148;29;20047;-89
2022/05/29 03:56:39;;;;;;;12.40;3.00;;;;;;;;;;4938824;29;20463;-87
2022/05/29 03:59:05;;;;;;;15.00;2.75;;;;;;;;;;4938653;29;20482;-88
2022/05/29 04:01:32;;;;;;;13.48;2.20;;;;;;;;;;4938477;29;20047;-87
2022/05/29 04:03:58;;;;;;;9.38;2.22;;;;;;;;;;4938327;29;20406;-89
2022/05/29 04:06:24;;;;;;;12.63;2.67;;;;;;;;;;4938649;29;20390;-89
2022/05/29 04:14:22;;;;;;;8.73;2.30;;;;;;;;;;4955507;29;20055;-87
2022/05/29 04:16:48;;;;;;;11.43;2.13;;;;;;;;;;4938456;29;20043;-88
2022/05/29 04:19:14;;;;;;;13.35;2.20;;;;;;;;;;4938236;29;20129;-89
2022/05/29 04:21:40;;;;;;;15.15;2.42;;;;;;;;;;4922577;29;20117;-88
2022/05/29 04:24:06;;;;;;;13.35;2.10;;;;;;;;;;4938337;29;20194;-91
2022/05/29 04:26:33;;;;;;;10.52;1.90;;;;;;;;;;4938582;29;20502;-90
2022/05/29 04:29:00;;;;;;;9.50;1.90;;;;;;;;;;4922251;29;20098;-88
2022/05/29 04:31:26;;;;;;;16.48;3.10;;;;;;;;;;4922133;29;20054;-89
2022/05/29 04:33:52;;;;;;;15.15;3.15;;;;;;;;;;4938231;29;20051;-87
2022/05/29 04:36:18;;;;;;;11.07;2.30;;;;;;;;;;4937757;29;20039;-88
2022/05/29 04:38:44;;;;;;;13.80;2.20;;;;;;;;;;4938023;29;20039;-89
2022/05/29 04:41:10;;;;;;;11.48;2.45;;;;;;;;;;4938143;29;20047;-90
2022/05/29 04:43:36;;;;;;;9.57;2.28;;;;;;;;;;4938289;29;20047;-89
2022/05/29 04:46:03;;;;;;;11.25;2.45;;;;;;;;;;4934406;29;20111;-89
2022/05/29 04:48:29;;;;;;;12.00;2.20;;;;;;;;;;4934588;29;20127;-89
2022/05/29 04:50:59;;;;;;;9.32;2.13;;;;;;;;;;4934781;29;20043;-90
2022/05/29 04:53:26;;;;;;;12.82;2.08;;;;;;;;;;4935139;29;20074;-89
2022/05/29 04:55:53;;;;;;;8.98;2.30;;;;;;;;;;4934768;29;20399;-87
2022/05/29 04:58:19;;;;;;;13.40;2.42;;;;;;;;;;4934700;29;20078;-89
2022/05/29 05:00:45;;;;;;;11.68;2.47;;;;;;;;;;4918712;29;20083;-88
2022/05/29 05:03:11;;;;;;;15.23;2.83;;;;;;;;;;4934826;29;20075;-88
2022/05/29 05:05:37;;;;;;;14.75;2.67;;;;;;;;;;4937955;29;20078;-87
2022/05/29 05:08:04;;;;;;;14.65;2.50;;;;;;;;;;4939905;29;20044;-88
2022/05/29 05:10:30;;;;;;;17.25;2.25;;;;;;;;;;4940126;29;20066;-91
2022/05/29 05:12:56;;;;;;;11.20;2.22;;;;;;;;;;4939029;29;20491;-89
2022/05/29 05:15:22;;;;;;;13.90;2.72;;;;;;;;;;4938380;29;20058;-88
2022/05/29 05:17:48;;;;;;;15.32;2.72;;;;;;;;;;4938581;29;20700;-88
2022/05/29 05:20:14;;;;;;;18.83;2.55;;;;;;;;;;4938115;29;20554;-89
2022/05/29 05:22:41;;;;;;;12.30;2.88;;;;;;;;;;4938574;29;20470;-88
2022/05/29 05:25:08;;;;;;;12.57;2.65;;;;;;;;;;4937952;29;20087;-89
2022/05/29 05:27:34;;;;;;;11.45;2.30;;;;;;;;;;4938269;29;20040;-88
2022/05/29 05:29:59;;;;;;;15.52;2.20;;;;;;;;;;4939149;29;20036;-88
2022/05/29 05:32:25;;;;;;;11.88;2.47;;;;;;;;;;4938419;29;20051;-88
2022/05/29 05:34:51;;;;;;;12.38;2.42;;;;;;;;;;4939465;29;20052;-88
2022/05/29 05:37:17;;;;;;;14.32;2.10;;;;;;;;;;4938143;29;20087;-88
2022/05/29 05:39:44;;;;;;;14.48;2.60;;;;;;;;;;4922141;29;20075;-87
2022/05/29 05:42:10;;;;;;;12.77;3.05;;;;;;;;;;4939099;29;20047;-88
2022/05/29 05:44:36;;;;;;;14.93;2.70;;;;;;;;;;4937797;29;20047;-88
2022/05/29 05:47:02;;;;;;;12.80;2.30;;;;;;;;;;4956644;29;20066;-89
2022/05/29 05:49:28;;;;;;;14.20;2.45;;;;;;;;;;4941279;29;20043;-89
2022/05/29 05:51:55;;;;;;;17.63;2.58;;;;;;;;;;4941004;29;20479;-90
2022/05/29 05:54:21;;;;;;;16.48;3.10;;;;;;;;;;4941121;29;20481;-89
2022/05/29 05:56:50;;;;;;;13.20;2.40;;;;;;;;;;4940769;29;20071;-89
2022/05/29 05:59:16;;;;;;;13.68;3.40;;;;;;;;;;4940849;29;20050;-89
2022/05/29 06:01:42;;;;;;;22.13;3.95;;;;;;;;;;4924982;29;20043;-89
2022/05/29 06:04:08;;;;;;;12.88;2.55;;;;;;;;;;4940958;29;20106;-90
2022/05/29 06:06:35;;;;;;;16.02;4.10;;;;;;;;;;4941032;29;20399;-90
2022/05/29 06:09:01;;;;;;;13.57;3.33;;;;;;;;;;4941230;29;20047;-89
2022/05/29 06:11:28;;;;;;;13.88;2.80;;;;;;;;;;4940824;29;20494;-91
2022/05/29 06:13:54;;;;;;;17.08;2.67;;;;;;;;;;4925195;29;20047;-90
2022/05/29 06:16:20;;;;;;;16.55;3.47;;;;;;;;;;4939817;29;20071;-89
2022/05/29 06:18:46;;;;;;;15.30;3.00;;;;;;;;;;4940866;29;20100;-90
2022/05/29 06:21:13;;;;;;;13.40;2.30;;;;;;;;;;4941065;29;20151;-91
2022/05/29 06:23:40;;;;;;;15.65;2.60;;;;;;;;;;4940642;29;20133;-86
2022/05/29 06:26:07;;;;;;;18.83;2.80;;;;;;;;;;4940528;29;20043;-89
2022/05/29 06:28:33;;;;;;;15.73;2.90;;;;;;;;;;4924480;29;20050;-89
2022/05/29 06:30:59;;;;;;;12.98;2.65;;;;;;;;;;4940732;29;20378;-90
2022/05/29 06:33:26;;;;;;;15.40;2.97;;;;;;;;;;4940739;29;20043;-88
2022/05/29 06:35:53;;;;;;;13.02;2.90;;;;;;;;;;4940333;29;20486;-90
2022/05/29 06:38:19;;;;;;;15.73;3.78;;;;;;;;;;4940705;29;20386;-90
2022/05/29 06:40:49;;;;;;;19.42;3.47;;;;;;;;;;4940072;29;20061;-90
2022/05/29 06:43:15;;;;;;;12.75;2.42;;;;;;;;;;4924540;29;20046;-90
2022/05/29 06:45:41;;;;;;;12.60;2.33;;;;;;;;;;4940216;29;20320;-90
2022/05/29 06:48:07;;;;;;;10.90;1.80;;;;;;;;;;4940486;29;20070;-89
2022/05/29 06:50:33;;;;;;;11.48;1.90;;;;;;;;;;4940156;29;20072;-91
2022/05/29 06:52:59;;;;;;;17.58;2.25;;;;;;;;;;4940423;29;20411;-91
2022/05/29 06:55:25;;;;;;;13.70;2.42;;;;;;;;;;4939710;29;20058;-88
2022/05/29 06:57:52;;;;;;;10.90;1.60;;;;;;;;;;4939384;29;20097;-88
2022/05/29 07:08:42;;;;;;;13.20;2.55;;;;;;;;;;4958946;29;20047;-93
2022/05/29 07:11:11;;;;;;;9.90;1.70;;;;;;;;;;4957754;28;20391;-87
2022/05/29 07:13:38;;;;;;;7.70;1.50;;;;;;;;;;4955280;28;20089;-88
2022/05/29 07:16:04;;;;;;;12.35;1.63;;;;;;;;;;4955359;28;20047;-87
2022/05/29 07:18:30;;;;;;;10.63;1.95;;;;;;;;;;4955085;28;20660;-88
2022/05/29 07:21:00;;;;;;;9.45;1.80;;;;;;;;;;4938978;29;20134;-88
2022/05/29 07:23:26;;;;;;;11.25;2.10;;;;;;;;;;4939137;29;20047;-87
2022/05/29 07:25:52;;;;;;;9.20;2.10;;;;;;;;;;4954866;28;20122;-89
2022/05/29 07:28:18;;;;;;;12.48;2.08;;;;;;;;;;4954807;28;20043;-88
2022/05/29 07:30:47;;;;;;;13.00;2.25;;;;;;;;;;4954814;28;20050;-85
2022/05/29 07:33:13;;;;;;;12.70;2.17;;;;;;;;;;4956112;29;20039;-90
2022/05/29 07:35:40;;;;;;;11.43;2.10;;;;;;;;;;4955285;28;20050;-91
2022/05/29 07:38:06;;;;;;;11.32;1.92;;;;;;;;;;4955296;28;20398;-90
2022/05/29 07:40:32;;;;;;;11.73;1.58;;;;;;;;;;4939472;29;20050;-89
2022/05/29 07:45:43;;;;;;;8.05;1.77;;;;;;;;;;4952270;28;20055;-86
2022/05/29 07:48:09;;;;;;;7.95;1.80;;;;;;;;;;4957257;28;20130;-85
2022/05/29 07:50:35;;;;;;;9.20;2.03;;;;;;;;;;4957707;28;20051;-86
2022/05/29 07:53:01;;;;;;;6.82;1.45;;;;;;;;;;4957044;28;20097;-86
2022/05/29 07:55:27;;;;;;;8.45;1.48;;;;;;;;;;4957323;28;20121;-86
2022/05/29 07:57:53;;;;;;;9.98;1.42;;;;;;;;;;4974302;28;20043;-86
2022/05/29 08:00:20;;;;;;;12.38;1.60;;;;;;;;;;4957142;28;20485;-87
2022/05/29 08:02:46;;;;;;;9.57;1.90;;;;;;;;;;4957277;28;20102;-87
2022/05/29 08:05:14;;;;;;;6.15;1.63;;;;;;;;;;4941331;28;20376;-88
2022/05/29 08:07:41;;;;;;;9.30;1.70;;;;;;;;;;4957181;28;20073;-87
2022/05/29 08:10:07;;;;;;;7.22;1.55;;;;;;;;;;4957508;28;20057;-88
2022/05/29 08:12:33;;;;;;;12.18;1.90;;;;;;;;;;4957267;28;20038;-87
2022/05/29 08:14:59;;;;;;;7.22;1.33;;;;;;;;;;4941289;28;20074;-87
2022/05/29 08:17:25;;;;;;;8.45;1.20;;;;;;;;;;4956997;28;20081;-86
2022/05/29 08:19:51;;;;;;;11.40;1.90;;;;;;;;;;4957216;28;20042;-86
2022/05/29 08:22:17;;;;;;;6.57;1.40;;;;;;;;;;4956929;28;20047;-87
2022/05/29 08:33:02;;;;;;;8.20;0.98;;;;;;;;;;4974097;28;20050;-87
2022/05/29 08:35:28;;;;;;;7.85;0.98;;;;;;;;;;4940830;28;20398;-87
2022/05/29 08:37:55;;;;;;;6.35;0.80;;;;;;;;;;4957020;28;20050;-86
2022/05/29 08:40:21;;;;;;;6.13;1.02;;;;;;;;;;4956513;28;20547;-86
2022/05/29 08:42:47;;;;;;;9.73;1.02;;;;;;;;;;4956684;28;20178;-86
2022/05/29 08:45:15;;;;;;;5.57;1.10;;;;;;;;;;4940344;28;20089;-86
2022/05/29 08:47:45;;;;;;;4.47;1.27;;;;;;;;;;4957009;28;20039;-86
2022/05/29 08:50:15;;;;;;;7.22;1.30;;;;;;;;;;4974105;28;20557;-86
2022/05/29 08:52:59;;;;;;;8.88;1.52;;;;;;;;;;4944534;29;20087;-85
2022/05/29 08:55:36;;;;;;;7.97;1.17;;;;;;;;;;4942690;29;20151;-85
2022/05/29 08:58:03;;;;;;;10.68;1.70;;;;;;;;;;4926385;29;20039;-85
2022/05/29 09:00:32;;;;;;;7.15;1.35;;;;;;;;;;4945025;29;20059;-86
2022/05/29 09:03:04;;;;;;;7.15;1.27;;;;;;;;;;4928288;29;20051;-86
2022/05/29 09:05:45;;;;;;;9.50;1.48;;;;;;;;;;4927263;29;20074;-86
2022/05/29 09:08:14;;;;;;;9.48;1.83;;;;;;;;;;4927340;29;20122;-85
2022/05/29 09:10:42;;;;;;;9.93;2.03;;;;;;;;;;4918724;29;20051;-86
2022/05/29 09:13:35;;;;;;;9.95;1.52;;;;;;;;;;4918153;29;20039;-83
2022/05/29 09:16:05;;;;;;;6.85;1.38;;;;;;;;;;4917315;29;20127;-86
2022/05/29 09:18:37;;;;;;;12.98;1.88;;;;;;;;;;4902673;29;20048;-85
2022/05/29 09:21:06;;;;;;;8.40;1.27;;;;;;;;;;4902801;29;20127;-86
2022/05/29 09:23:35;;;;;;;8.05;1.15;;;;;;;;;;4917950;29;20051;-87
2022/05/29 09:26:06;;;;;;;9.48;1.27;;;;;;;;;;4902782;29;20071;-85
2022/05/29 09:28:36;;;;;;;5.65;0.80;;;;;;;;;;4922016;29;20126;-87
2022/05/29 09:31:06;;;;;;;6.60;0.75;;;;;;;;;;4918227;29;20537;-86
2022/05/29 09:33:32;;;;;;;4.68;0.80;;;;;;;;;;4916994;29;20048;-86
2022/05/29 09:36:03;;;;;;;7.30;1.35;;;;;;;;;;4927697;29;20043;-85
2022/05/29 09:38:29;;;;;;;7.65;1.00;;;;;;;;;;4935837;29;20062;-85
2022/05/29 09:41:07;;;;;;;6.35;1.27;;;;;;;;;;4936412;29;20047;-87
2022/05/29 09:43:33;;;;;;;10.75;2.03;;;;;;;;;;4953912;28;20044;-86
2022/05/29 09:46:18;;;;;;;7.55;1.30;;;;;;;;;;4953907;28;20066;-86
2022/05/29 09:51:38;;;;;;;15.27;1.80;;;;;;;;;;4954836;28;20627;-85
2022/05/29 09:54:05;;;;;;;11.13;1.67;;;;;;;;;;4938669;28;20039;-85
2022/05/29 09:56:33;;;;;;;7.28;1.20;;;;;;;;;;4959659;28;20129;-85
2022/05/29 09:59:05;;;;;;;10.77;1.20;;;;;;;;;;4959376;28;20461;-86
2022/05/29 10:01:36;;;;;;;8.38;1.45;;;;;;;;;;4943725;28;20126;-86
2022/05/29 10:04:04;;;;;;;6.80;1.48;;;;;;;;;;4959143;28;20043;-85
2022/05/29 10:06:32;;;;;;;6.90;1.40;;;;;;;;;;4959747;28;20501;-86
2022/05/29 10:09:09;;;;;;;8.88;1.30;;;;;;;;;;4959206;28;20042;-85
2022/05/29 10:11:35;;;;;;;8.13;1.50;;;;;;;;;;4959679;28;20046;-86
2022/05/29 10:14:17;;;;;;;8.02;1.30;;;;;;;;;;4976883;28;20053;-86
2022/05/29 10:16:43;;;;;;;9.13;1.10;;;;;;;;;;4959269;28;20051;-87
2022/05/29 10:19:14;;;;;;;7.15;1.33;;;;;;;;;;4959316;28;20097;-87
2022/05/29 10:21:45;;;;;;;4.47;1.15;;;;;;;;;;4959385;28;20056;-86
2022/05/29 10:24:28;;;;;;;6.95;1.00;;;;;;;;;;4959012;28;20051;-86
2022/05/29 10:26:56;;;;;;;6.70;1.15;;;;;;;;;;4957832;28;20459;-88
2022/05/29 10:29:30;;;;;;;6.93;1.10;;;;;;;;;;4958910;28;20129;-86
2022/05/29 10:31:56;;;;;;;6.38;1.35;;;;;;;;;;4958175;28;20047;-86
2022/05/29 10:34:33;;;;;;;7.55;1.58;;;;;;;;;;4959061;28;20050;-87
2022/05/29 10:36:59;;;;;;;8.82;1.20;;;;;;;;;;4957881;28;20486;-86
2022/05/29 10:39:31;;;;;;;6.47;1.13;;;;;;;;;;4942792;28;20096;-86
2022/05/29 10:41:58;;;;;;;9.13;1.50;;;;;;;;;;4940986;28;20055;-85
2022/05/29 10:44:36;;;;;;;9.00;1.25;;;;;;;;;;4939338;29;20051;-89
2022/05/29 10:47:17;;;;;;;12.73;1.48;;;;;;;;;;4955550;28;20055;-86
2022/05/29 10:49:51;;;;;;;12.00;1.70;;;;;;;;;;4939570;29;20479;-87
2022/05/29 10:52:17;;;;;;;13.40;1.67;;;;;;;;;;4955799;29;20446;-87
2022/05/29 10:54:58;;;;;;;9.63;1.58;;;;;;;;;;4939225;28;20047;-87
2022/05/29 10:57:33;;;;;;;7.13;1.40;;;;;;;;;;4936852;28;20071;-86
2022/05/29 11:00:18;;;;;;;6.63;1.00;;;;;;;;;;4939585;29;20191;-87
2022/05/29 11:03:20;;;;;;;8.32;1.13;;;;;;;;;;4938330;29;20344;-86
2022/05/29 11:06:04;;;;;;;8.32;1.20;;;;;;;;;;4939528;29;20129;-86
2022/05/29 11:08:57;;;;;;;6.93;1.50;;;;;;;;;;4955417;29;20050;-86
2022/05/29 11:11:42;;;;;;;9.63;1.50;;;;;;;;;;4924814;29;20055;-86
2022/05/29 11:14:21;;;;;;;6.72;1.10;;;;;;;;;;4938854;29;20039;-87
2022/05/29 11:17:09;;;;;;;6.30;1.60;;;;;;;;;;4939107;29;20134;-86
2022/05/29 11:19:49;;;;;;;8.05;1.30;;;;;;;;;;4923015;29;20130;-86
2022/05/29 11:22:23;;;;;;;10.40;2.20;;;;;;;;;;4923261;29;20054;-87
2022/05/29 11:24:58;;;;;;;10.82;1.70;;;;;;;;;;4938645;28;20046;-86
2022/05/29 11:27:24;;;;;;;8.20;1.40;;;;;;;;;;4956096;29;20412;-86
2022/05/29 11:30:09;;;;;;;11.32;1.45;;;;;;;;;;4938716;29;20055;-87
2022/05/29 11:32:52;;;;;;;11.32;2.20;;;;;;;;;;4939130;29;20047;-85
2022/05/29 11:35:37;;;;;;;11.18;1.65;;;;;;;;;;4938754;29;20043;-87
2022/05/29 11:38:06;;;;;;;11.60;3.05;;;;;;;;;;4939088;29;20074;-87
2022/05/29 11:40:36;;;;;;;10.75;1.67;;;;;;;;;;4938516;29;20047;-87
2022/05/29 11:43:05;;;;;;;10.57;1.60;;;;;;;;;;4938780;29;20557;-87
2022/05/29 11:51:18;;;;;;;8.98;1.45;;;;;;;;;;4938645;29;20051;-87
2022/05/29 11:54:02;;;;;;;7.78;1.63;;;;;;;;;;4938544;29;20536;-85
2022/05/29 11:56:31;;;;;;;8.23;1.20;;;;;;;;;;4938643;29;20050;-89
2022/05/29 11:59:04;;;;;;;8.95;1.70;;;;;;;;;;4938650;29;20051;-87
2022/05/29 12:01:39;;;;;;;8.52;1.67;;;;;;;;;;4938566;29;20051;-88
2022/05/29 12:04:11;;;;;;;8.57;1.30;;;;;;;;;;4955511;29;20051;-87
2022/05/29 12:06:42;;;;;;;8.95;2.25;;;;;;;;;;4938259;29;20126;-88
2022/05/29 12:09:24;;;;;;;14.57;2.13;;;;;;;;;;4955165;29;20055;-87
2022/05/29 12:11:59;;;;;;;9.98;2.13;;;;;;;;;;4954327;28;20118;-87
2022/05/29 12:14:27;;;;;;;9.35;1.20;;;;;;;;;;4937550;29;20047;-86
2022/05/29 12:17:09;;;;;;;9.85;1.50;;;;;;;;;;4922159;29;20093;-86
2022/05/29 12:19:39;;;;;;;6.78;1.50;;;;;;;;;;4938206;29;20047;-86
2022/05/29 12:22:07;;;;;;;7.80;2.10;;;;;;;;;;4937956;29;20051;-88
2022/05/29 12:24:35;;;;;;;11.32;1.38;;;;;;;;;;4937740;29;20138;-88
2022/05/29 12:27:01;;;;;;;9.50;1.92;;;;;;;;;;4937912;29;20043;-86
2022/05/29 12:29:31;;;;;;;10.75;2.20;;;;;;;;;;4937835;29;20173;-86
2022/05/29 12:32:06;;;;;;;11.07;1.67;;;;;;;;;;4938064;29;20078;-86
2022/05/29 12:34:40;;;;;;;8.13;1.40;;;;;;;;;;4938038;29;20320;-86
2022/05/29 12:37:24;;;;;;;8.77;1.60;;;;;;;;;;4955086;29;20419;-85
2022/05/29 12:40:00;;;;;;;9.25;1.60;;;;;;;;;;4921939;29;20503;-87
2022/05/29 12:42:33;;;;;;;10.15;1.42;;;;;;;;;;4955036;29;20565;-86
2022/05/29 12:45:02;;;;;;;12.18;2.05;;;;;;;;;;4921508;29;20090;-87
2022/05/29 12:47:37;;;;;;;7.65;1.73;;;;;;;;;;4954979;29;20098;-87
2022/05/29 12:50:03;;;;;;;8.43;1.55;;;;;;;;;;4954630;29;20039;-85
2022/05/29 12:52:35;;;;;;;10.57;2.65;;;;;;;;;;4937678;29;20410;-86
2022/05/29 12:55:19;;;;;;;10.35;1.73;;;;;;;;;;4937613;29;20051;-86
2022/05/29 12:57:45;;;;;;;10.75;1.75;;;;;;;;;;4937439;29;20049;-86
2022/05/29 13:00:24;;;;;;;9.80;1.45;;;;;;;;;;4936162;29;20046;-86
2022/05/29 13:03:09;;;;;;;5.93;1.00;;;;;;;;;;4937546;29;20047;-87
2022/05/29 13:05:52;;;;;;;9.05;1.30;;;;;;;;;;4953266;28;20043;-86
2022/05/29 13:08:44;;;;;;;6.78;1.00;;;;;;;;;;4956661;28;20068;-88
2022/05/29 13:11:11;;;;;;;7.93;1.55;;;;;;;;;;4950195;28;20568;-87
2022/05/29 13:13:41;;;;;;;10.38;1.92;;;;;;;;;;4955889;28;20459;-88
2022/05/29 13:16:19;;;;;;;12.15;1.40;;;;;;;;;;4955629;28;20058;-87
2022/05/29 13:21:31;;;;;;;7.68;1.52;;;;;;;;;;4956548;28;20136;-86
2022/05/29 13:23:58;;;;;;;11.60;1.90;;;;;;;;;;4956471;28;20090;-86
2022/05/29 13:26:26;;;;;;;13.60;1.70;;;;;;;;;;4957846;28;20513;-86
2022/05/29 13:28:54;;;;;;;13.63;1.80;;;;;;;;;;4960381;28;20097;-85
2022/05/29 13:31:20;;;;;;;9.77;1.65;;;;;;;;;;4949406;29;20050;-85
2022/05/29 13:33:48;;;;;;;9.77;1.50;;;;;;;;;;4940988;29;20054;-85
2022/05/29 13:36:33;;;;;;;11.10;2.08;;;;;;;;;;4941062;29;20433;-86
2022/05/29 13:38:59;;;;;;;13.57;1.83;;;;;;;;;;4941149;29;20482;-84
2022/05/29 13:41:30;;;;;;;12.07;1.55;;;;;;;;;;4940668;29;20053;-85
2022/05/29 13:43:56;;;;;;;9.57;2.25;;;;;;;;;;4939699;28;20472;-86
2022/05/29 13:46:27;;;;;;;11.13;2.17;;;;;;;;;;4937915;28;20522;-87
2022/05/29 13:48:58;;;;;;;9.35;1.70;;;;;;;;;;4921626;29;20091;-85
2022/05/29 13:51:28;;;;;;;10.00;2.67;;;;;;;;;;4939188;29;20122;-85
2022/05/29 13:53:57;;;;;;;11.55;2.67;;;;;;;;;;4921679;29;20107;-86
2022/05/29 13:56:43;;;;;;;8.70;1.75;;;;;;;;;;4920439;29;20079;-86
2022/05/29 14:05:04;;;;;;;12.38;1.80;;;;;;;;;;4938290;29;20631;-86
2022/05/29 14:07:32;;;;;;;10.45;1.48;;;;;;;;;;4922248;29;20048;-85
2022/05/29 14:10:05;;;;;;;7.82;1.60;;;;;;;;;;4922295;29;20048;-85
2022/05/29 14:12:31;;;;;;;12.63;2.10;;;;;;;;;;4922439;29;20048;-86
2022/05/29 14:14:58;;;;;;;8.55;1.70;;;;;;;;;;4938764;29;20175;-85
2022/05/29 14:17:28;;;;;;;8.18;1.63;;;;;;;;;;4921002;29;20055;-85
2022/05/29 14:20:10;;;;;;;8.38;1.60;;;;;;;;;;4905390;29;20051;-86
2022/05/29 14:22:48;;;;;;;11.00;2.00;;;;;;;;;;4921084;29;20057;-85
2022/05/29 14:25:32;;;;;;;11.00;1.60;;;;;;;;;;4920694;29;20052;-85
2022/05/29 14:28:04;;;;;;;8.85;1.42;;;;;;;;;;4921013;29;20043;-86
2022/05/29 14:30:50;;;;;;;10.18;1.40;;;;;;;;;;4920800;29;20123;-84
2022/05/29 14:33:28;;;;;;;9.88;1.55;;;;;;;;;;4921146;29;20058;-85
2022/05/29 14:36:03;;;;;;;11.98;1.98;;;;;;;;;;4920794;29;20058;-84
2022/05/29 14:38:38;;;;;;;10.15;1.75;;;;;;;;;;4920195;29;20054;-84
2022/05/29 14:41:27;;;;;;;16.67;2.08;;;;;;;;;;4920581;29;20079;-85
2022/05/29 14:43:53;;;;;;;12.55;2.00;;;;;;;;;;4913392;29;20048;-85
2022/05/29 14:48:59;;;;;;;21.90;3.67;;;;;;;;;;4920908;29;20055;-86
2022/05/29 14:51:32;;;;;;;12.45;2.22;;;;;;;;;;4920563;29;20048;-84
2022/05/29 14:54:00;;;;;;;10.90;2.35;;;;;;;;;;4919567;29;20204;-85
2022/05/29 14:56:36;;;;;;;10.55;1.90;;;;;;;;;;4920378;29;20496;-85
2022/05/29 14:59:20;;;;;;;11.18;2.35;;;;;;;;;;4926733;28;20046;-85
2022/05/29 15:01:46;;;;;;;9.85;1.60;;;;;;;;;;4958359;28;20502;-85
2022/05/29 15:04:12;;;;;;;10.20;1.70;;;;;;;;;;4926102;29;20430;-85
2022/05/29 15:12:30;;;;;;;14.82;2.13;;;;;;;;;;4956392;28;20071;-85
2022/05/29 15:15:14;;;;;;;12.50;2.03;;;;;;;;;;4937376;28;20047;-86
2022/05/29 15:17:40;;;;;;;15.95;2.17;;;;;;;;;;4956195;29;20142;-86
2022/05/29 15:25:55;;;;;;;35.47;16.45;;;;;;;;;;4956052;28;20051;-85
2022/05/29 15:28:22;;;;;;;10.00;1.80;;;;;;;;;;4937707;29;20040;-85
2022/05/29 15:30:48;;;;;;;9.73;1.40;;;;;;;;;;4939025;29;20198;-86
2022/05/29 15:33:14;;;;;;;10.50;1.65;;;;;;;;;;4954669;28;20554;-85
2022/05/29 15:35:51;;;;;;;11.57;2.83;;;;;;;;;;4938931;29;20055;-84
2022/05/29 15:38:21;;;;;;;9.30;1.88;;;;;;;;;;4954731;29;20257;-85
2022/05/29 15:41:11;;;;;;;10.02;1.83;;;;;;;;;;4956127;29;20043;-85
2022/05/29 15:43:46;;;;;;;12.85;1.65;;;;;;;;;;4955091;29;20458;-85
2022/05/29 15:46:30;;;;;;;13.50;2.40;;;;;;;;;;4955442;28;20158;-85
2022/05/29 15:49:20;;;;;;;12.93;1.98;;;;;;;;;;4930879;28;20050;-85
2022/05/29 15:51:58;;;;;;;13.73;2.30;;;;;;;;;;4942052;28;20073;-84